createdAt,value
2023-03-17T00:01:13.911Z,3.17
2023-03-17T00:03:42.911Z,3.35
2023-03-17T00:06:19.141Z,3.30
2023-03-17T00:08:48.298Z,3.00
2023-03-17T00:11:17.308Z,3.53
2023-03-17T00:13:46.119Z,3.53
2023-03-17T00:16:25.470Z,3.35
2023-03-17T00:18:53.794Z,3.40
2023-03-17T00:21:28.289Z,3.20
2023-03-17T00:23:56.227Z,3.38
2023-03-17T00:26:24.209Z,3.80
2023-03-17T00:28:52.989Z,3.10
2023-03-17T00:31:22.403Z,3.42
2023-03-17T00:33:52.247Z,3.88
2023-03-17T00:36:21.456Z,3.58
2023-03-17T00:38:48.619Z,3.17
2023-03-17T00:41:15.274Z,3.38
2023-03-17T00:43:42.058Z,3.35
2023-03-17T00:46:23.711Z,3.33
2023-03-17T00:48:50.456Z,3.35
2023-03-17T00:51:17.389Z,3.42
2023-03-17T00:53:44.297Z,3.63
2023-03-17T00:56:14.597Z,3.42
2023-03-17T00:58:42.117Z,3.53
2023-03-17T01:01:09.220Z,3.42
2023-03-17T01:03:36.252Z,3.35
2023-03-17T01:06:05.078Z,3.17
2023-03-17T01:08:32.180Z,3.00
2023-03-17T01:10:59.536Z,3.78
2023-03-17T01:13:26.370Z,3.45
2023-03-17T01:15:53.230Z,3.30
2023-03-17T01:18:22.774Z,3.45
2023-03-17T01:20:51.139Z,3.43
2023-03-17T01:23:18.206Z,3.65
2023-03-17T01:25:45.501Z,3.40
2023-03-17T01:28:14.870Z,3.65
2023-03-17T01:30:41.531Z,3.25
2023-03-17T01:33:09.882Z,3.30
2023-03-17T01:35:38.304Z,3.53
2023-03-17T01:38:06.118Z,3.15
2023-03-17T01:40:35.947Z,3.20
2023-03-17T01:43:17.537Z,3.83
2023-03-17T01:46:21.255Z,3.63
2023-03-17T01:48:56.771Z,3.53
2023-03-17T01:51:36.617Z,3.22
2023-03-17T01:54:08.543Z,3.20
2023-03-17T01:56:37.994Z,3.13
2023-03-17T01:59:10.149Z,3.55
2023-03-17T02:01:43.574Z,3.67
2023-03-17T02:04:11.918Z,3.50
2023-03-17T02:06:55.113Z,3.60
2023-03-17T02:09:24.268Z,3.08
2023-03-17T02:11:51.080Z,3.42
2023-03-17T02:14:17.876Z,3.50
2023-03-17T02:16:47.774Z,3.42
2023-03-17T02:19:14.451Z,3.17
2023-03-17T02:21:45.287Z,3.30
2023-03-17T02:24:28.287Z,3.30
2023-03-17T02:27:00.440Z,3.38
2023-03-17T02:29:27.732Z,3.80
2023-03-17T02:31:54.765Z,2.90
2023-03-17T02:34:21.819Z,3.50
2023-03-17T02:36:48.522Z,3.38
2023-03-17T02:39:15.395Z,3.63
2023-03-17T02:41:42.496Z,3.35
2023-03-17T02:44:09.348Z,3.53
2023-03-17T02:46:36.299Z,3.35
2023-03-17T02:49:04.389Z,4.20
2023-03-17T02:51:31.023Z,3.35
2023-03-17T02:53:57.600Z,3.17
2023-03-17T02:56:24.299Z,3.85
2023-03-17T02:58:51.185Z,3.83
2023-03-17T03:01:18.307Z,3.58
2023-03-17T03:03:44.911Z,3.60
2023-03-17T03:06:11.656Z,3.47
2023-03-17T03:08:38.404Z,3.38
2023-03-17T03:11:05.143Z,3.40
2023-03-17T03:13:32.757Z,3.13
2023-03-17T03:16:00.185Z,3.47
2023-03-17T03:18:26.941Z,3.50
2023-03-17T03:20:53.703Z,4.38
2023-03-17T03:23:20.782Z,3.63
2023-03-17T03:25:47.498Z,3.45
2023-03-17T03:28:14.112Z,3.30
2023-03-17T03:30:41.663Z,3.30
2023-03-17T03:33:08.367Z,3.80
2023-03-17T03:35:35.363Z,3.67
2023-03-17T03:38:02.203Z,3.75
2023-03-17T03:40:28.992Z,3.78
2023-03-17T03:42:56.176Z,3.70
2023-03-17T03:45:23.018Z,3.25
2023-03-17T03:47:49.683Z,3.65
2023-03-17T03:50:16.785Z,3.58
2023-03-17T03:52:43.413Z,3.38
2023-03-17T03:55:10.525Z,3.50
2023-03-17T03:57:37.340Z,3.15
2023-03-17T04:00:05.207Z,3.30
2023-03-17T04:02:31.991Z,3.08
2023-03-17T04:04:58.687Z,3.20
2023-03-17T04:07:25.768Z,3.45
2023-03-17T04:09:52.340Z,3.50
2023-03-17T04:12:19.532Z,3.30
2023-03-17T04:14:46.174Z,3.63
2023-03-17T04:17:13.114Z,3.20
2023-03-17T04:19:40.108Z,3.25
2023-03-17T04:22:09.086Z,3.53
2023-03-17T04:24:35.819Z,3.20
2023-03-17T04:27:05.485Z,3.30
2023-03-17T04:29:32.654Z,3.15
2023-03-17T04:31:59.753Z,3.55
2023-03-17T04:34:27.323Z,3.38
2023-03-17T04:36:54.335Z,3.45
2023-03-17T04:39:21.020Z,3.40
2023-03-17T04:41:47.695Z,3.17
2023-03-17T04:44:14.378Z,3.78
2023-03-17T04:46:40.982Z,3.60
2023-03-17T04:49:08.473Z,3.47
2023-03-17T04:51:36.959Z,3.42
2023-03-17T04:54:03.849Z,3.30
2023-03-17T04:56:31.929Z,3.45
2023-03-17T04:58:58.911Z,3.50
2023-03-17T05:01:25.721Z,3.70
2023-03-17T05:03:52.655Z,3.40
2023-03-17T05:06:19.372Z,2.92
2023-03-17T05:08:46.085Z,3.60
2023-03-17T05:11:13.650Z,4.28
2023-03-17T05:13:43.488Z,3.15
2023-03-17T05:16:11.145Z,3.35
2023-03-17T05:18:38.403Z,3.50
2023-03-17T05:21:06.456Z,3.78
2023-03-17T05:23:34.015Z,3.60
2023-03-17T05:26:01.063Z,3.38
2023-03-17T05:28:27.941Z,3.75
2023-03-17T05:30:55.217Z,3.22
2023-03-17T05:33:22.204Z,3.30
2023-03-17T05:35:48.949Z,3.72
2023-03-17T05:38:16.124Z,3.70
2023-03-17T05:40:43.488Z,3.55
2023-03-17T05:43:10.620Z,3.10
2023-03-17T05:45:37.724Z,4.00
2023-03-17T05:48:04.905Z,3.97
2023-03-17T05:50:32.516Z,3.78
2023-03-17T05:52:59.411Z,3.40
2023-03-17T05:55:26.263Z,3.35
2023-03-17T05:57:52.978Z,3.30
2023-03-17T06:00:21.508Z,3.28
2023-03-17T06:02:48.403Z,3.40
2023-03-17T06:05:15.135Z,3.25
2023-03-17T06:07:52.844Z,3.75
2023-03-17T06:10:21.994Z,3.70
2023-03-17T06:12:48.620Z,3.20
2023-03-17T06:15:16.638Z,3.67
2023-03-17T06:17:43.635Z,3.53
2023-03-17T06:20:11.790Z,3.50
2023-03-17T06:22:46.311Z,3.70
2023-03-17T06:25:19.026Z,3.42
2023-03-17T06:27:45.640Z,3.95
2023-03-17T06:30:12.552Z,3.88
2023-03-17T06:32:40.255Z,3.90
2023-03-17T06:35:07.547Z,3.40
2023-03-17T06:37:35.154Z,3.95
2023-03-17T06:40:02.305Z,3.45
2023-03-17T06:42:28.953Z,3.63
2023-03-17T06:44:55.651Z,3.67
2023-03-17T06:47:25.486Z,3.40
2023-03-17T06:49:53.535Z,3.50
2023-03-17T06:52:20.225Z,3.92
2023-03-17T06:54:47.301Z,3.22
2023-03-17T06:57:13.998Z,3.60
2023-03-17T06:59:41.760Z,3.72
2023-03-17T07:02:11.657Z,3.20
2023-03-17T07:04:38.694Z,3.30
2023-03-17T07:07:06.176Z,3.30
2023-03-17T07:09:34.664Z,3.28
2023-03-17T07:12:05.176Z,4.07
2023-03-17T07:14:36.784Z,4.75
2023-03-17T07:17:06.130Z,4.57
2023-03-17T07:19:33.447Z,4.60
2023-03-17T07:22:00.246Z,3.60
2023-03-17T07:24:27.083Z,3.40
2023-03-17T07:26:53.742Z,3.72
2023-03-17T07:29:21.389Z,3.83
2023-03-17T07:31:48.398Z,3.30
2023-03-17T07:34:16.448Z,3.70
2023-03-17T07:36:43.310Z,3.60
2023-03-17T07:39:12.015Z,3.63
2023-03-17T07:41:38.998Z,3.30
2023-03-17T07:44:05.635Z,3.90
2023-03-17T07:46:32.394Z,3.55
2023-03-17T07:48:59.070Z,3.80
2023-03-17T07:51:28.248Z,3.67
2023-03-17T07:54:03.337Z,3.60
2023-03-17T07:56:31.446Z,3.85
2023-03-17T07:58:59.136Z,3.60
2023-03-17T08:01:29.084Z,3.88
2023-03-17T08:03:56.683Z,4.07
2023-03-17T08:06:27.548Z,3.67
2023-03-17T08:08:55.117Z,3.55
2023-03-17T08:11:23.474Z,3.97
2023-03-17T08:13:51.066Z,3.28
2023-03-17T08:16:17.841Z,4.03
2023-03-17T08:18:44.806Z,3.40
2023-03-17T08:21:12.294Z,3.60
2023-03-17T08:23:39.688Z,3.72
2023-03-17T08:26:06.567Z,3.53
2023-03-17T08:28:33.183Z,3.22
2023-03-17T08:31:15.331Z,3.17
2023-03-17T08:33:43.131Z,3.75
2023-03-17T08:36:11.464Z,3.83
2023-03-17T08:38:40.204Z,3.53
2023-03-17T08:41:10.827Z,3.83
2023-03-17T08:46:13.100Z,3.75
2023-03-17T08:48:39.906Z,3.80
2023-03-17T08:51:06.950Z,3.50
2023-03-17T08:53:35.223Z,3.80
2023-03-17T08:56:04.688Z,3.65
2023-03-17T08:58:31.544Z,3.83
2023-03-17T09:01:03.765Z,3.80
2023-03-17T09:03:31.241Z,3.65
2023-03-17T09:05:58.174Z,3.88
2023-03-17T09:08:25.346Z,3.83
2023-03-17T09:10:53.173Z,3.70
2023-03-17T09:13:20.878Z,3.78
2023-03-17T09:15:51.250Z,3.55
2023-03-17T09:18:21.394Z,3.90
2023-03-17T09:20:48.814Z,3.67
2023-03-17T09:23:16.101Z,3.85
2023-03-17T09:25:43.117Z,3.72
2023-03-17T09:28:12.193Z,3.97
2023-03-17T09:30:43.003Z,3.35
2023-03-17T09:33:12.022Z,3.70
2023-03-17T09:35:39.988Z,3.88
2023-03-17T09:38:08.317Z,3.75
2023-03-17T09:40:47.978Z,3.60
2023-03-17T09:43:31.974Z,3.95
2023-03-17T09:46:14.252Z,3.75
2023-03-17T09:49:01.703Z,3.88
2023-03-17T09:51:30.029Z,3.65
2023-03-17T09:54:02.445Z,3.53
2023-03-17T09:56:34.843Z,4.00
2023-03-17T09:59:32.228Z,3.55
2023-03-17T10:01:59.188Z,3.88
2023-03-17T10:04:25.910Z,3.95
2023-03-17T10:07:01.712Z,3.60
2023-03-17T10:09:41.898Z,4.35
2023-03-17T10:12:12.572Z,3.80
2023-03-17T10:14:54.513Z,3.67
2023-03-17T10:17:29.889Z,3.70
2023-03-17T10:20:08.810Z,3.80
2023-03-17T10:22:48.472Z,3.85
2023-03-17T10:25:23.713Z,4.07
2023-03-17T10:27:58.223Z,3.47
2023-03-17T10:30:25.978Z,3.70
2023-03-17T10:32:53.947Z,3.47
2023-03-17T10:35:23.534Z,3.70
2023-03-17T10:37:51.118Z,4.00
2023-03-17T10:40:28.642Z,3.83
2023-03-17T10:43:03.823Z,3.95
2023-03-17T10:45:39.093Z,4.50
2023-03-17T10:48:17.418Z,4.07
2023-03-17T10:50:48.655Z,4.22
2023-03-17T10:53:30.315Z,3.72
2023-03-17T10:56:07.274Z,3.60
2023-03-17T10:59:05.053Z,3.55
2023-03-17T11:01:47.404Z,4.40
2023-03-17T11:04:27.526Z,4.50
2023-03-17T11:06:58.376Z,4.22
2023-03-17T11:09:29.210Z,3.65
2023-03-17T11:12:36.692Z,4.13
2023-03-17T11:15:17.734Z,4.30
2023-03-17T11:17:58.978Z,4.55
2023-03-17T11:20:40.900Z,3.88
2023-03-17T11:23:19.500Z,4.05
2023-03-17T11:25:49.802Z,4.25
2023-03-17T11:28:21.949Z,4.55
2023-03-17T11:31:18.916Z,4.22
2023-03-17T11:34:02.510Z,4.40
2023-03-17T11:36:44.720Z,4.13
2023-03-17T11:39:23.915Z,4.70
2023-03-17T11:42:08.626Z,4.75
2023-03-17T11:45:13.348Z,4.70
2023-03-17T11:48:15.252Z,4.38
2023-03-17T11:50:44.317Z,4.50
2023-03-17T11:53:25.664Z,4.32
2023-03-17T11:55:58.067Z,4.88
2023-03-17T11:58:46.778Z,4.68
2023-03-17T12:01:19.600Z,4.50
2023-03-17T12:04:18.435Z,4.85
2023-03-17T12:06:52.051Z,4.40
2023-03-17T12:09:25.893Z,4.10
2023-03-17T12:11:55.855Z,4.43
2023-03-17T12:14:30.759Z,4.65
2023-03-17T12:17:17.180Z,4.78
2023-03-17T12:20:12.522Z,4.47
2023-03-17T12:23:06.997Z,4.85
2023-03-17T12:25:42.580Z,4.57
2023-03-17T12:28:17.875Z,5.03
2023-03-17T12:30:56.059Z,4.57
2023-03-17T12:33:36.834Z,5.15
2023-03-17T12:36:05.432Z,5.00
2023-03-17T12:38:43.289Z,4.47
2023-03-17T12:41:13.217Z,4.50
2023-03-17T12:43:48.415Z,4.57
2023-03-17T12:46:41.890Z,4.40
2023-03-17T12:49:36.247Z,4.55
2023-03-17T12:52:15.440Z,4.85
2023-03-17T12:54:46.540Z,5.45
2023-03-17T12:57:14.859Z,4.82
2023-03-17T12:59:48.438Z,4.57
2023-03-17T13:02:46.025Z,4.72
2023-03-17T13:05:17.598Z,4.97
2023-03-17T13:11:42.375Z,4.60
2023-03-17T13:14:24.572Z,5.20
2023-03-17T13:16:51.800Z,5.13
2023-03-17T13:19:22.873Z,5.47
2023-03-17T13:22:04.826Z,5.40
2023-03-17T13:24:47.423Z,4.97
2023-03-17T13:27:32.527Z,5.07
2023-03-17T13:30:21.797Z,5.63
2023-03-17T13:33:04.388Z,5.60
2023-03-17T13:35:45.601Z,4.72
2023-03-17T13:38:33.195Z,4.80
2023-03-17T13:41:08.752Z,5.35
2023-03-17T13:43:54.275Z,4.63
2023-03-17T13:46:44.123Z,5.00
2023-03-17T13:49:20.007Z,5.78
2023-03-17T13:52:00.348Z,4.88
2023-03-17T13:56:59.298Z,5.25
2023-03-17T13:59:53.251Z,5.28
2023-03-17T14:02:23.811Z,5.07
2023-03-17T14:07:24.216Z,5.20
2023-03-17T14:09:57.398Z,4.88
2023-03-17T14:12:38.425Z,4.68
2023-03-17T14:15:23.963Z,5.07
2023-03-17T14:17:57.578Z,5.45
2023-03-17T14:20:27.467Z,5.43
2023-03-17T14:22:57.395Z,5.10
2023-03-17T14:25:28.784Z,5.03
2023-03-17T14:27:57.920Z,4.82
2023-03-17T14:30:26.824Z,4.90
2023-03-17T14:33:13.998Z,5.13
2023-03-17T14:35:43.334Z,4.78
2023-03-17T14:38:19.171Z,4.97
2023-03-17T14:40:46.141Z,4.82
2023-03-17T14:43:13.699Z,4.47
2023-03-17T14:45:48.102Z,5.60
2023-03-17T14:48:17.494Z,5.10
2023-03-17T14:50:56.487Z,4.88
2023-03-17T14:53:24.740Z,4.60
2023-03-17T14:55:53.576Z,4.97
2023-03-17T14:58:36.756Z,5.50
2023-03-17T15:01:03.681Z,5.10
2023-03-17T15:03:33.174Z,4.63
2023-03-17T15:06:07.725Z,5.55
2023-03-17T15:08:43.550Z,4.85
2023-03-17T15:11:22.335Z,4.82
2023-03-17T15:13:50.542Z,4.38
2023-03-17T15:16:24.681Z,4.70
2023-03-17T15:19:01.927Z,5.13
2023-03-17T15:21:34.695Z,5.25
2023-03-17T15:24:23.437Z,5.35
2023-03-17T15:26:50.304Z,4.97
2023-03-17T15:29:17.089Z,4.53
2023-03-17T15:31:43.759Z,4.78
2023-03-17T15:34:15.173Z,5.13
2023-03-17T15:36:43.537Z,4.90
2023-03-17T15:39:10.531Z,5.38
2023-03-17T15:41:37.305Z,5.13
2023-03-17T15:44:05.237Z,4.97
2023-03-17T15:46:34.137Z,4.97
2023-03-17T15:49:01.333Z,4.85
2023-03-17T15:51:28.045Z,4.85
2023-03-17T15:53:54.653Z,4.90
2023-03-17T15:56:22.125Z,5.38
2023-03-17T15:58:52.272Z,5.00
2023-03-17T16:01:20.142Z,5.13
2023-03-17T16:03:48.102Z,5.18
2023-03-17T16:06:22.121Z,5.18
2023-03-17T16:08:50.352Z,5.03
2023-03-17T16:11:27.884Z,5.18
2023-03-17T16:13:56.585Z,5.25
2023-03-17T16:16:31.897Z,5.13
2023-03-17T16:18:59.278Z,4.80
2023-03-17T16:21:26.421Z,5.25
2023-03-17T16:23:54.035Z,5.22
2023-03-17T16:26:21.104Z,5.30
2023-03-17T16:28:49.139Z,5.57
2023-03-17T16:31:30.312Z,5.47
2023-03-17T16:33:57.286Z,5.20
2023-03-17T16:36:25.552Z,5.20
2023-03-17T16:38:52.402Z,4.50
2023-03-17T16:41:24.542Z,5.47
2023-03-17T16:43:57.659Z,6.15
2023-03-17T16:46:27.082Z,5.13
2023-03-17T16:48:53.842Z,5.72
2023-03-17T16:51:20.740Z,5.63
2023-03-17T16:53:47.424Z,5.55
2023-03-17T16:56:18.270Z,5.07
2023-03-17T16:58:46.262Z,5.68
2023-03-17T17:01:25.104Z,6.05
2023-03-17T17:03:52.215Z,6.00
2023-03-17T17:06:20.376Z,5.40
2023-03-17T17:08:48.173Z,6.38
2023-03-17T17:11:16.902Z,5.60
2023-03-17T17:13:46.282Z,5.45
2023-03-17T17:16:33.071Z,5.10
2023-03-17T17:19:00.380Z,5.82
2023-03-17T17:21:27.866Z,5.80
2023-03-17T17:23:55.666Z,5.47
2023-03-17T17:26:23.019Z,5.65
2023-03-17T17:28:49.929Z,5.57
2023-03-17T17:31:16.925Z,5.18
2023-03-17T17:33:43.601Z,5.22
2023-03-17T17:36:15.729Z,5.22
2023-03-17T17:38:43.154Z,5.78
2023-03-17T17:41:11.926Z,9.45
2023-03-17T17:43:39.240Z,10.20
2023-03-17T17:46:15.485Z,8.23
2023-03-17T17:48:42.294Z,6.45
2023-03-17T17:51:09.029Z,6.40
2023-03-17T17:53:35.906Z,5.50
2023-03-17T17:56:02.847Z,5.88
2023-03-17T17:58:29.437Z,5.55
2023-03-17T18:00:57.519Z,5.45
2023-03-17T18:03:26.383Z,5.18
2023-03-17T18:05:55.408Z,5.68
2023-03-17T18:08:23.878Z,6.22
2023-03-17T18:10:52.209Z,6.25
2023-03-17T18:13:19.272Z,6.45
2023-03-17T18:15:46.154Z,5.88
2023-03-17T18:18:12.891Z,6.00
2023-03-17T18:20:39.738Z,5.85
2023-03-17T18:23:06.791Z,5.50
2023-03-17T18:25:34.055Z,5.70
2023-03-17T18:28:01.509Z,5.15
2023-03-17T18:30:31.798Z,5.20
2023-03-17T18:33:04.508Z,5.50
2023-03-17T18:35:31.585Z,5.05
2023-03-17T18:37:58.521Z,5.38
2023-03-17T18:40:26.532Z,5.90
2023-03-17T18:42:53.308Z,5.95
2023-03-17T18:45:20.018Z,6.47
2023-03-17T18:47:47.069Z,6.20
2023-03-17T18:50:15.578Z,6.18
2023-03-17T18:52:43.787Z,6.03
2023-03-17T18:55:12.308Z,6.05
2023-03-17T18:57:39.285Z,6.13
2023-03-17T19:00:08.587Z,5.78
2023-03-17T19:02:36.315Z,6.10
2023-03-17T19:05:03.685Z,5.88
2023-03-17T19:07:30.767Z,7.07
2023-03-17T19:09:57.674Z,5.78
2023-03-17T19:12:24.760Z,6.30
2023-03-17T19:14:52.243Z,5.72
2023-03-17T19:17:19.011Z,6.05
2023-03-17T19:19:46.992Z,6.55
2023-03-17T19:22:14.167Z,7.22
2023-03-17T19:24:41.237Z,6.55
2023-03-17T19:27:07.971Z,6.47
2023-03-17T19:29:34.737Z,6.70
2023-03-17T19:32:02.340Z,7.25
2023-03-17T19:34:29.238Z,6.22
2023-03-17T19:36:56.207Z,6.15
2023-03-17T19:39:23.180Z,6.55
2023-03-17T19:41:53.300Z,6.20
2023-03-17T19:44:19.918Z,5.85
2023-03-17T19:46:46.729Z,6.22
2023-03-17T19:49:13.545Z,6.88
2023-03-17T19:51:42.008Z,6.45
2023-03-17T19:54:09.975Z,7.63
2023-03-17T19:56:38.401Z,16.45
2023-03-17T19:59:09.113Z,12.77
2023-03-17T20:01:37.868Z,13.02
2023-03-17T20:04:06.865Z,12.65
2023-03-17T20:06:34.765Z,12.10
2023-03-17T20:09:04.301Z,10.85
2023-03-17T20:11:33.972Z,9.55
2023-03-17T20:14:02.263Z,7.28
2023-03-17T20:16:31.942Z,6.55
2023-03-17T20:18:58.568Z,5.83
2023-03-17T20:21:25.519Z,5.60
2023-03-17T20:23:52.577Z,6.70
2023-03-17T20:26:20.057Z,6.90
2023-03-17T20:28:47.486Z,5.82
2023-03-17T20:31:14.378Z,6.47
2023-03-17T20:33:41.422Z,6.28
2023-03-17T20:36:08.497Z,5.88
2023-03-17T20:38:38.846Z,6.15
2023-03-17T20:41:11.307Z,6.82
2023-03-17T20:43:38.836Z,6.70
2023-03-17T20:46:08.571Z,6.75
2023-03-17T20:48:37.331Z,6.55
2023-03-17T20:51:06.155Z,6.45
2023-03-17T20:53:36.237Z,6.90
2023-03-17T20:56:03.086Z,6.18
2023-03-17T20:58:30.491Z,5.95
2023-03-17T21:00:58.516Z,6.15
2023-03-17T21:03:25.400Z,6.00
2023-03-17T21:05:53.413Z,5.78
2023-03-17T21:08:20.091Z,6.10
2023-03-17T21:10:46.807Z,6.43
2023-03-17T21:13:13.679Z,6.07
2023-03-17T21:15:41.216Z,6.03
2023-03-17T21:18:08.003Z,5.53
2023-03-17T21:20:34.735Z,5.80
2023-03-17T21:23:04.512Z,6.88
2023-03-17T21:25:31.291Z,6.67
2023-03-17T21:27:58.057Z,5.95
2023-03-17T21:30:24.689Z,5.95
2023-03-17T21:32:51.350Z,6.03
2023-03-17T21:35:18.184Z,5.72
2023-03-17T21:37:44.941Z,5.72
2023-03-17T21:40:15.697Z,5.78
2023-03-17T21:45:09.329Z,6.20
2023-03-17T21:47:41.076Z,6.57
2023-03-17T21:50:08.565Z,6.03
2023-03-17T21:52:35.227Z,6.47
2023-03-17T21:55:01.971Z,6.50
2023-03-17T21:57:29.727Z,6.32
2023-03-17T21:59:56.350Z,6.90
2023-03-17T22:02:23.580Z,6.75
2023-03-17T22:04:50.332Z,6.53
2023-03-17T22:07:17.856Z,6.20
2023-03-17T22:09:44.951Z,6.22
2023-03-17T22:12:12.232Z,6.10
2023-03-17T22:14:38.871Z,7.28
2023-03-17T22:17:05.622Z,6.50
2023-03-17T22:19:32.457Z,6.93
2023-03-17T22:21:59.284Z,6.45
2023-03-17T22:24:26.138Z,6.95
2023-03-17T22:26:52.786Z,7.15
2023-03-17T22:29:19.940Z,7.05
2023-03-17T22:31:47.119Z,7.20
2023-03-17T22:34:13.959Z,7.63
2023-03-17T22:36:41.152Z,7.18
2023-03-17T22:39:10.955Z,7.32
2023-03-17T22:41:38.949Z,7.20
2023-03-17T22:44:08.345Z,7.82
2023-03-17T22:46:36.603Z,7.30
2023-03-17T22:49:03.745Z,7.38
2023-03-17T22:51:30.524Z,8.80
2023-03-17T22:53:57.777Z,8.38
2023-03-17T22:56:25.117Z,8.30
2023-03-17T22:58:52.337Z,8.32
2023-03-17T23:01:20.372Z,8.38
2023-03-17T23:03:47.258Z,8.02
2023-03-17T23:06:14.626Z,8.18
2023-03-17T23:08:43.332Z,8.00
2023-03-17T23:11:18.298Z,7.53
2023-03-17T23:13:47.342Z,7.20
2023-03-17T23:16:14.824Z,8.10
2023-03-17T23:18:44.078Z,7.15
2023-03-17T23:23:45.484Z,7.55
2023-03-17T23:26:12.102Z,7.30
2023-03-17T23:28:38.917Z,7.38
2023-03-17T23:31:05.722Z,7.55
2023-03-17T23:33:32.733Z,6.88
2023-03-17T23:35:59.534Z,7.00
2023-03-17T23:38:26.418Z,7.10
2023-03-17T23:40:56.759Z,6.88
2023-03-17T23:43:23.875Z,6.65
2023-03-17T23:45:53.073Z,6.68
2023-03-17T23:48:20.738Z,6.72
2023-03-17T23:50:50.710Z,6.43
2023-03-17T23:53:17.979Z,6.65
2023-03-17T23:55:45.296Z,6.10
2023-03-17T23:58:12.454Z,6.22
